createdAt,value
2023-05-23T00:00:17.422Z,83.3
2023-05-23T00:01:16.972Z,83.1
2023-05-23T00:02:16.994Z,83.4
2023-05-23T00:03:16.959Z,83.4
2023-05-23T00:04:16.617Z,83.2
2023-05-23T00:05:17.301Z,83.4
2023-05-23T00:06:17.261Z,83.2
2023-05-23T00:07:16.875Z,83.0
2023-05-23T00:08:17.420Z,82.9
2023-05-23T00:09:16.964Z,82.9
2023-05-23T00:10:16.552Z,83.1
2023-05-23T00:11:17.102Z,83.1
2023-05-23T00:12:17.309Z,83.1
2023-05-23T00:13:16.850Z,82.8
2023-05-23T00:14:17.441Z,82.8
2023-05-23T00:15:17.013Z,82.7
2023-05-23T00:16:16.583Z,82.8
2023-05-23T00:17:17.195Z,83.0
2023-05-23T00:18:16.863Z,82.9
2023-05-23T00:19:17.623Z,83.0
2023-05-23T00:20:17.231Z,83.2
2023-05-23T00:21:16.832Z,83.0
2023-05-23T00:22:16.673Z,82.9
2023-05-23T00:23:17.246Z,82.8
2023-05-23T00:24:16.876Z,82.9
2023-05-23T00:25:17.450Z,83.0
2023-05-23T00:26:17.025Z,83.1
2023-05-23T00:27:16.591Z,83.2
2023-05-23T00:28:17.184Z,83.2
2023-05-23T00:29:16.935Z,83.3
2023-05-23T00:30:17.541Z,83.4
2023-05-23T00:31:17.125Z,83.4
2023-05-23T00:32:17.096Z,83.4
2023-05-23T00:33:16.644Z,83.5
2023-05-23T00:34:17.209Z,83.4
2023-05-23T00:35:16.729Z,83.4
2023-05-23T00:36:17.260Z,83.1
2023-05-23T00:37:16.836Z,83.2
2023-05-23T00:38:17.448Z,83.0
2023-05-23T00:39:17.009Z,83.1
2023-05-23T00:40:16.565Z,83.0
2023-05-23T00:41:17.099Z,83.0
2023-05-23T00:42:16.709Z,83.0
2023-05-23T00:43:17.278Z,82.9
2023-05-23T00:44:16.996Z,83.0
2023-05-23T00:45:16.654Z,83.0
2023-05-23T00:46:17.355Z,83.1
2023-05-23T00:47:16.884Z,83.1
2023-05-23T00:48:17.466Z,83.3
2023-05-23T00:49:17.023Z,83.4
2023-05-23T00:50:16.607Z,83.4
2023-05-23T00:51:17.187Z,83.7
2023-05-23T00:52:16.834Z,83.7
2023-05-23T00:53:17.454Z,83.7
2023-05-23T00:54:17.037Z,83.7
2023-05-23T00:55:16.634Z,83.8
2023-05-23T00:56:17.182Z,84.1
2023-05-23T00:57:16.774Z,84.0
2023-05-23T00:58:17.372Z,84.2
2023-05-23T00:59:16.935Z,84.1
2023-05-23T01:00:17.677Z,84.2
2023-05-23T01:01:17.474Z,84.6
2023-05-23T01:02:16.609Z,84.6
2023-05-23T01:03:17.433Z,84.7
2023-05-23T01:04:17.257Z,84.6
2023-05-23T01:05:16.825Z,84.6
2023-05-23T01:06:17.380Z,84.6
2023-05-23T01:07:16.932Z,84.6
2023-05-23T01:08:17.489Z,84.7
2023-05-23T01:09:17.074Z,84.7
2023-05-23T01:10:16.643Z,84.8
2023-05-23T01:11:17.235Z,84.8
2023-05-23T01:12:16.781Z,84.7
2023-05-23T01:13:17.307Z,84.8
2023-05-23T01:14:16.879Z,85.0
2023-05-23T01:15:17.433Z,85.1
2023-05-23T01:16:17.051Z,85.1
2023-05-23T01:17:16.623Z,85.2
2023-05-23T01:18:17.247Z,85.3
2023-05-23T01:19:16.949Z,85.4
2023-05-23T01:20:16.540Z,85.4
2023-05-23T01:21:17.104Z,85.6
2023-05-23T01:22:16.682Z,85.6
2023-05-23T01:23:17.292Z,85.7
2023-05-23T01:24:16.873Z,85.9
2023-05-23T01:25:17.416Z,85.8
2023-05-23T01:26:16.961Z,85.7
2023-05-23T01:27:16.527Z,85.6
2023-05-23T01:28:17.096Z,85.9
2023-05-23T01:29:16.656Z,85.8
2023-05-23T01:30:17.209Z,86.1
2023-05-23T01:31:16.914Z,86.2
2023-05-23T01:32:17.391Z,86.1
2023-05-23T01:33:16.943Z,86.4
2023-05-23T01:34:17.562Z,86.4
2023-05-23T01:35:17.113Z,86.5
2023-05-23T01:36:16.661Z,86.6
2023-05-23T01:37:17.202Z,86.8
2023-05-23T01:38:16.786Z,86.8
2023-05-23T01:39:17.331Z,86.8
2023-05-23T01:40:16.888Z,87.1
2023-05-23T01:41:17.470Z,87.1
2023-05-23T01:42:16.765Z,87.1
2023-05-23T01:43:17.309Z,87.1
2023-05-23T01:44:19.147Z,86.9
2023-05-23T01:45:17.304Z,86.9
2023-05-23T01:46:16.954Z,86.9
2023-05-23T01:47:16.826Z,86.8
2023-05-23T01:48:17.434Z,86.8
2023-05-23T01:49:17.017Z,87.3
2023-05-23T01:50:16.606Z,87.5
2023-05-23T01:51:17.166Z,87.7
2023-05-23T01:52:17.572Z,87.8
2023-05-23T01:53:17.148Z,88.0
2023-05-23T01:54:16.702Z,88.0
2023-05-23T01:55:17.380Z,88.0
2023-05-23T01:56:17.058Z,88.0
2023-05-23T01:57:16.608Z,88.0
2023-05-23T01:58:17.149Z,87.9
2023-05-23T01:59:16.703Z,88.1
2023-05-23T02:00:17.249Z,88.1
2023-05-23T02:01:16.908Z,88.2
2023-05-23T02:02:17.572Z,88.2
2023-05-23T02:03:17.483Z,88.2
2023-05-23T02:04:17.081Z,88.1
2023-05-23T02:05:16.657Z,88.1
2023-05-23T02:06:17.216Z,88.0
2023-05-23T02:07:16.744Z,88.2
2023-05-23T02:08:17.302Z,88.1
2023-05-23T02:09:16.840Z,88.1
2023-05-23T02:10:17.414Z,88.1
2023-05-23T02:11:16.949Z,88.2
2023-05-23T02:12:17.078Z,88.1
2023-05-23T02:13:16.662Z,88.1
2023-05-23T02:14:17.203Z,88.0
2023-05-23T02:15:16.790Z,88.0
2023-05-23T02:16:17.350Z,88.0
2023-05-23T02:17:17.232Z,88.0
2023-05-23T02:18:16.953Z,88.0
2023-05-23T02:19:17.629Z,88.3
2023-05-23T02:20:17.220Z,88.6
2023-05-23T02:21:16.793Z,88.6
2023-05-23T02:22:17.093Z,88.6
2023-05-23T02:23:16.829Z,88.5
2023-05-23T02:24:17.410Z,88.4
2023-05-23T02:25:17.005Z,88.5
2023-05-23T02:26:16.566Z,88.5
2023-05-23T02:27:17.135Z,88.5
2023-05-23T02:28:16.704Z,88.4
2023-05-23T02:29:17.265Z,88.4
2023-05-23T02:30:16.866Z,88.3
2023-05-23T02:31:17.666Z,88.5
2023-05-23T02:32:17.171Z,88.4
2023-05-23T02:33:16.752Z,88.5
2023-05-23T02:34:17.325Z,88.4
2023-05-23T02:35:16.879Z,88.4
2023-05-23T02:36:17.447Z,88.5
2023-05-23T02:37:16.997Z,88.6
2023-05-23T02:38:16.524Z,89.0
2023-05-23T02:39:17.066Z,89.1
2023-05-23T02:40:16.615Z,89.1
2023-05-23T02:41:17.183Z,89.1
2023-05-23T02:42:16.706Z,89.1
2023-05-23T02:43:17.245Z,89.1
2023-05-23T02:44:16.833Z,89.1
2023-05-23T02:45:17.388Z,89.1
2023-05-23T02:46:17.052Z,89.0
2023-05-23T02:47:16.659Z,89.0
2023-05-23T02:48:17.386Z,89.0
2023-05-23T02:49:17.085Z,89.0
2023-05-23T02:50:16.635Z,89.0
2023-05-23T02:51:17.169Z,89.0
2023-05-23T02:52:16.655Z,89.0
2023-05-23T02:53:17.194Z,89.0
2023-05-23T02:54:16.724Z,89.1
2023-05-23T02:55:17.248Z,89.0
2023-05-23T02:56:16.806Z,89.1
2023-05-23T02:57:17.388Z,89.1
2023-05-23T02:58:16.969Z,89.1
2023-05-23T02:59:16.525Z,89.1
2023-05-23T03:00:17.084Z,89.2
2023-05-23T03:01:16.637Z,89.1
2023-05-23T03:02:17.360Z,89.2
2023-05-23T03:03:17.290Z,89.2
2023-05-23T03:04:16.922Z,89.3
2023-05-23T03:05:17.478Z,89.3
2023-05-23T03:06:17.052Z,89.3
2023-05-23T03:07:28.772Z,89.3
2023-05-23T03:08:16.521Z,89.3
2023-05-23T03:09:17.059Z,89.3
2023-05-23T03:10:16.581Z,89.4
2023-05-23T03:11:17.116Z,89.4
2023-05-23T03:12:17.437Z,89.3
2023-05-23T03:13:16.961Z,89.3
2023-05-23T03:14:16.535Z,89.3
2023-05-23T03:15:17.056Z,89.4
2023-05-23T03:16:16.603Z,89.4
2023-05-23T03:17:17.193Z,89.4
2023-05-23T03:18:16.695Z,89.3
2023-05-23T03:19:17.323Z,89.4
2023-05-23T03:20:16.877Z,89.3
2023-05-23T03:21:17.358Z,89.4
2023-05-23T03:22:17.035Z,89.4
2023-05-23T03:23:16.576Z,89.5
2023-05-23T03:24:17.127Z,89.6
2023-05-23T03:25:16.660Z,89.6
2023-05-23T03:26:17.164Z,89.6
2023-05-23T03:27:16.680Z,89.6
2023-05-23T03:28:17.194Z,89.6
2023-05-23T03:29:16.695Z,89.8
2023-05-23T03:30:17.208Z,89.7
2023-05-23T03:31:16.815Z,89.8
2023-05-23T03:32:17.697Z,89.8
2023-05-23T03:33:17.329Z,89.7
2023-05-23T03:34:16.820Z,89.7
2023-05-23T03:35:17.332Z,89.8
2023-05-23T03:36:16.825Z,89.7
2023-05-23T03:37:17.322Z,89.7
2023-05-23T03:38:16.861Z,89.8
2023-05-23T03:39:17.404Z,89.8
2023-05-23T03:40:16.914Z,89.7
2023-05-23T03:41:17.677Z,89.8
2023-05-23T03:42:17.289Z,89.7
2023-05-23T03:43:16.807Z,89.8
2023-05-23T03:44:17.360Z,89.7
2023-05-23T03:45:16.873Z,89.8
2023-05-23T03:46:17.522Z,89.9
2023-05-23T03:47:17.058Z,89.9
2023-05-23T03:48:16.560Z,89.9
2023-05-23T03:49:17.056Z,89.9
2023-05-23T03:50:16.590Z,89.9
2023-05-23T03:51:17.118Z,89.9
2023-05-23T03:52:16.670Z,90.0
2023-05-23T03:53:17.212Z,90.0
2023-05-23T03:54:16.707Z,90.0
2023-05-23T03:55:17.232Z,90.0
2023-05-23T03:56:16.764Z,89.9
2023-05-23T03:57:17.303Z,89.9
2023-05-23T03:58:16.793Z,89.9
2023-05-23T03:59:17.293Z,89.9
2023-05-23T04:00:16.783Z,89.9
2023-05-23T04:01:17.288Z,90.0
2023-05-23T04:02:16.996Z,89.9
2023-05-23T04:03:16.777Z,89.7
2023-05-23T04:04:17.571Z,89.6
2023-05-23T04:05:17.188Z,89.7
2023-05-23T04:06:16.678Z,89.7
2023-05-23T04:07:17.172Z,89.7
2023-05-23T04:08:16.655Z,89.8
2023-05-23T04:09:17.216Z,89.9
2023-05-23T04:10:16.748Z,89.9
2023-05-23T04:11:17.309Z,89.8
2023-05-23T04:12:17.420Z,89.7
2023-05-23T04:13:16.949Z,89.7
2023-05-23T04:14:17.460Z,89.7
2023-05-23T04:15:16.972Z,89.7
2023-05-23T04:16:16.620Z,89.6
2023-05-23T04:17:17.153Z,89.6
2023-05-23T04:18:16.648Z,89.5
2023-05-23T04:19:17.300Z,89.4
2023-05-23T04:20:16.826Z,89.3
2023-05-23T04:21:17.324Z,89.2
2023-05-23T04:22:16.767Z,89.2
2023-05-23T04:23:17.329Z,89.4
2023-05-23T04:24:16.884Z,89.3
2023-05-23T04:25:17.442Z,89.3
2023-05-23T04:26:16.972Z,89.1
2023-05-23T04:27:16.515Z,89.0
2023-05-23T04:28:17.048Z,88.9
2023-05-23T04:29:16.637Z,88.9
2023-05-23T04:30:17.188Z,89.0
2023-05-23T04:31:16.816Z,88.8
2023-05-23T04:32:17.430Z,88.9
2023-05-23T04:33:17.031Z,88.8
2023-05-23T04:34:16.595Z,88.8
2023-05-23T04:35:17.147Z,88.8
2023-05-23T04:36:16.701Z,88.7
2023-05-23T04:37:17.249Z,88.8
2023-05-23T04:38:16.806Z,88.8
2023-05-23T04:39:17.443Z,88.9
2023-05-23T04:40:17.021Z,88.8
2023-05-23T04:41:16.803Z,88.5
2023-05-23T04:42:16.956Z,88.5
2023-05-23T04:43:17.545Z,88.5
2023-05-23T04:44:17.115Z,88.5
2023-05-23T04:45:16.692Z,88.6
2023-05-23T04:46:17.361Z,88.6
2023-05-23T04:47:16.968Z,88.3
2023-05-23T04:48:16.518Z,88.1
2023-05-23T04:49:17.133Z,88.1
2023-05-23T04:50:16.715Z,87.9
2023-05-23T04:51:17.256Z,87.7
2023-05-23T04:52:17.010Z,87.6
2023-05-23T04:53:17.012Z,87.5
2023-05-23T04:54:16.782Z,87.4
2023-05-23T04:55:17.579Z,87.3
2023-05-23T04:56:17.273Z,87.5
2023-05-23T04:57:16.803Z,87.2
2023-05-23T04:58:17.332Z,86.8
2023-05-23T04:59:16.905Z,86.9
2023-05-23T05:00:17.465Z,86.9
2023-05-23T05:01:17.083Z,86.8
2023-05-23T05:02:17.026Z,86.8
2023-05-23T05:03:16.611Z,86.4
2023-05-23T05:04:17.294Z,86.5
2023-05-23T05:05:16.927Z,86.5
2023-05-23T05:06:17.455Z,86.4
2023-05-23T05:07:17.208Z,86.0
2023-05-23T05:08:17.146Z,85.9
2023-05-23T05:09:16.682Z,85.8
2023-05-23T05:10:17.463Z,85.8
2023-05-23T05:11:17.046Z,85.3
2023-05-23T05:12:17.331Z,85.4
2023-05-23T05:13:16.848Z,85.0
2023-05-23T05:14:17.433Z,85.3
2023-05-23T05:15:16.990Z,85.4
2023-05-23T05:16:16.625Z,85.0
2023-05-23T05:17:17.230Z,85.3
2023-05-23T05:18:16.816Z,84.9
2023-05-23T05:19:17.442Z,84.8
2023-05-23T05:20:17.089Z,84.5
2023-05-23T05:21:16.645Z,84.5
2023-05-23T05:22:17.370Z,84.4
2023-05-23T05:23:16.963Z,84.8
2023-05-23T05:24:16.538Z,84.7
2023-05-23T05:25:17.147Z,84.9
2023-05-23T05:26:16.676Z,85.0
2023-05-23T05:27:17.413Z,84.7
2023-05-23T05:28:17.236Z,84.6
2023-05-23T05:29:16.798Z,84.5
2023-05-23T05:30:17.361Z,84.5
2023-05-23T05:31:16.985Z,84.6
2023-05-23T05:32:17.349Z,84.2
2023-05-23T05:33:16.910Z,84.2
2023-05-23T05:34:17.459Z,84.4
2023-05-23T05:35:17.059Z,84.0
2023-05-23T05:36:16.631Z,84.1
2023-05-23T05:37:17.201Z,84.4
2023-05-23T05:38:16.775Z,84.2
2023-05-23T05:39:17.314Z,84.7
2023-05-23T05:40:16.891Z,84.8
2023-05-23T05:41:17.449Z,84.5
2023-05-23T05:42:17.413Z,84.9
2023-05-23T05:43:16.985Z,84.8
2023-05-23T05:44:16.541Z,83.9
2023-05-23T05:45:17.092Z,83.6
2023-05-23T05:46:16.770Z,83.3
2023-05-23T05:47:17.315Z,82.7
2023-05-23T05:48:16.969Z,82.3
2023-05-23T05:49:17.574Z,82.3
2023-05-23T05:50:17.146Z,81.9
2023-05-23T05:51:16.703Z,81.1
2023-05-23T05:52:16.992Z,80.7
2023-05-23T05:53:16.545Z,81.0
2023-05-23T05:54:19.508Z,80.7
2023-05-23T05:55:17.132Z,80.7
2023-05-23T05:56:16.790Z,81.5
2023-05-23T05:57:17.355Z,81.4
2023-05-23T05:58:16.917Z,81.0
2023-05-23T05:59:17.493Z,81.3
2023-05-23T06:00:17.112Z,81.0
2023-05-23T06:01:16.665Z,81.1
2023-05-23T06:02:17.051Z,79.4
2023-05-23T06:03:16.844Z,79.3
2023-05-23T06:04:16.791Z,79.7
2023-05-23T06:05:17.428Z,79.7
2023-05-23T06:06:17.023Z,79.2
2023-05-23T06:07:16.596Z,77.8
2023-05-23T06:08:17.138Z,78.6
2023-05-23T06:09:16.670Z,78.2
2023-05-23T06:10:17.267Z,78.4
2023-05-23T06:11:16.900Z,78.1
2023-05-23T06:12:17.353Z,78.4
2023-05-23T06:13:16.906Z,78.1
2023-05-23T06:14:18.060Z,78.1
2023-05-23T06:15:17.002Z,77.9
2023-05-23T06:16:16.642Z,77.4
2023-05-23T06:17:17.356Z,77.2
2023-05-23T06:18:16.908Z,77.1
2023-05-23T06:19:17.544Z,77.6
2023-05-23T06:20:17.300Z,77.3
2023-05-23T06:21:17.004Z,76.8
2023-05-23T06:22:17.208Z,76.8
2023-05-23T06:23:16.756Z,76.0
2023-05-23T06:24:17.317Z,75.4
2023-05-23T06:25:16.893Z,75.3
2023-05-23T06:26:17.454Z,75.0
2023-05-23T06:27:17.033Z,76.2
2023-05-23T06:28:16.584Z,76.1
2023-05-23T06:29:17.134Z,75.9
2023-05-23T06:30:16.704Z,76.6
2023-05-23T06:31:17.301Z,76.5
2023-05-23T06:32:16.659Z,76.2
2023-05-23T06:33:17.188Z,75.3
2023-05-23T06:34:16.745Z,74.9
2023-05-23T06:35:17.288Z,75.2
2023-05-23T06:36:16.833Z,74.8
2023-05-23T06:37:17.414Z,73.5
2023-05-23T06:38:18.106Z,73.7
2023-05-23T06:39:16.654Z,72.9
2023-05-23T06:40:17.230Z,72.9
2023-05-23T06:41:16.804Z,72.9
2023-05-23T06:42:17.512Z,72.5
2023-05-23T06:43:17.208Z,72.2
2023-05-23T06:44:16.802Z,72.1
2023-05-23T06:45:17.355Z,72.2
2023-05-23T06:46:17.021Z,72.1
2023-05-23T06:47:16.647Z,72.5
2023-05-23T06:48:17.198Z,73.1
2023-05-23T06:49:16.776Z,74.0
2023-05-23T06:50:17.349Z,74.2
2023-05-23T06:51:16.994Z,73.9
2023-05-23T06:52:17.340Z,74.5
2023-05-23T06:53:19.496Z,74.1
2023-05-23T06:54:17.059Z,73.8
2023-05-23T06:55:16.610Z,74.6
2023-05-23T06:56:17.964Z,75.2
2023-05-23T06:57:16.579Z,75.0
2023-05-23T06:58:17.135Z,75.8
2023-05-23T06:59:16.674Z,76.1
2023-05-23T07:00:17.223Z,76.0
2023-05-23T07:01:16.844Z,75.0
2023-05-23T07:02:17.279Z,74.5
2023-05-23T07:03:16.898Z,74.0
2023-05-23T07:04:17.562Z,73.1
2023-05-23T07:05:17.197Z,73.1
2023-05-23T07:06:16.766Z,73.0
2023-05-23T07:07:17.356Z,72.0
2023-05-23T07:08:16.944Z,72.9
2023-05-23T07:09:17.509Z,73.2
2023-05-23T07:10:17.108Z,73.4
2023-05-23T07:11:16.695Z,73.7
2023-05-23T07:12:17.148Z,73.9
2023-05-23T07:13:16.703Z,74.1
2023-05-23T07:14:17.240Z,74.3
2023-05-23T07:15:16.808Z,74.5
2023-05-23T07:16:17.339Z,74.9
2023-05-23T07:17:17.150Z,75.3
2023-05-23T07:18:16.762Z,75.6
2023-05-23T07:19:17.371Z,75.2
2023-05-23T07:20:16.976Z,75.3
2023-05-23T07:21:16.558Z,75.6
2023-05-23T07:22:17.101Z,75.7
2023-05-23T07:23:16.645Z,75.9
2023-05-23T07:24:17.220Z,76.1
2023-05-23T07:25:16.758Z,76.7
2023-05-23T07:26:17.311Z,77.0
2023-05-23T07:27:16.853Z,77.4
2023-05-23T07:28:17.442Z,77.5
2023-05-23T07:29:17.020Z,77.6
2023-05-23T07:30:16.576Z,77.8
2023-05-23T07:31:17.289Z,77.9
2023-05-23T07:32:17.442Z,77.7
2023-05-23T07:33:17.030Z,77.4
2023-05-23T07:34:16.646Z,77.3
2023-05-23T07:35:18.054Z,77.2
2023-05-23T07:36:16.952Z,76.8
2023-05-23T07:37:16.584Z,77.1
2023-05-23T07:38:17.161Z,77.1
2023-05-23T07:39:16.728Z,77.1
2023-05-23T07:40:17.290Z,77.0
2023-05-23T07:41:16.857Z,76.2
2023-05-23T07:42:16.547Z,75.8
2023-05-23T07:43:17.125Z,75.5
2023-05-23T07:44:16.694Z,75.2
2023-05-23T07:45:17.263Z,74.8
2023-05-23T07:46:16.871Z,72.8
2023-05-23T07:47:17.459Z,71.5
2023-05-23T07:48:17.021Z,71.3
2023-05-23T07:49:16.609Z,70.1
2023-05-23T07:50:17.148Z,70.3
2023-05-23T07:51:16.703Z,70.5
2023-05-23T07:52:17.212Z,71.4
2023-05-23T07:53:16.756Z,70.7
2023-05-23T07:54:17.508Z,70.6
2023-05-23T07:55:17.190Z,70.5
2023-05-23T07:56:16.727Z,70.7
2023-05-23T07:57:17.275Z,70.9
2023-05-23T07:58:16.826Z,70.9
2023-05-23T07:59:17.521Z,70.8
2023-05-23T08:00:17.252Z,70.8
2023-05-23T08:01:16.858Z,72.2
2023-05-23T08:02:17.465Z,71.9
2023-05-23T08:03:17.125Z,71.5
2023-05-23T08:04:16.783Z,71.6
2023-05-23T08:05:17.452Z,70.9
2023-05-23T08:06:16.989Z,70.6
2023-05-23T08:07:19.708Z,69.6
2023-05-23T08:08:17.316Z,67.5
2023-05-23T08:09:17.006Z,65.5
2023-05-23T08:10:16.872Z,65.7
2023-05-23T08:11:17.733Z,63.0
2023-05-23T08:12:16.758Z,63.9
2023-05-23T08:13:17.354Z,63.4
2023-05-23T08:14:16.920Z,64.4
2023-05-23T08:15:17.521Z,65.6
2023-05-23T08:16:17.164Z,65.6
2023-05-23T08:17:16.835Z,66.0
2023-05-23T08:18:17.537Z,67.1
2023-05-23T08:19:17.255Z,66.8
2023-05-23T08:20:16.854Z,67.0
2023-05-23T08:21:17.397Z,67.1
2023-05-23T08:22:16.838Z,66.0
2023-05-23T08:23:17.416Z,66.2
2023-05-23T08:24:17.010Z,67.1
2023-05-23T08:25:16.577Z,66.3
2023-05-23T08:26:17.136Z,66.6
2023-05-23T08:27:16.701Z,68.8
2023-05-23T08:28:17.277Z,69.4
2023-05-23T08:29:16.862Z,68.8
2023-05-23T08:30:17.421Z,69.5
2023-05-23T08:31:17.100Z,70.1
2023-05-23T08:32:17.174Z,70.3
2023-05-23T08:33:16.825Z,69.6
2023-05-23T08:34:17.430Z,68.9
2023-05-23T08:35:16.990Z,69.4
2023-05-23T08:36:16.628Z,70.1
2023-05-23T08:37:17.188Z,70.0
2023-05-23T08:38:16.747Z,69.3
2023-05-23T08:39:17.319Z,67.9
2023-05-23T08:40:16.940Z,67.7
2023-05-23T08:41:17.535Z,66.8
2023-05-23T08:42:17.150Z,67.7
2023-05-23T08:43:16.734Z,68.3
2023-05-23T08:44:17.326Z,69.0
2023-05-23T08:45:16.874Z,69.5
2023-05-23T08:46:17.521Z,69.5
2023-05-23T08:47:17.136Z,69.0
2023-05-23T08:48:16.686Z,69.0
2023-05-23T08:49:17.258Z,69.0
2023-05-23T08:50:21.122Z,68.9
2023-05-23T08:51:17.415Z,69.2
2023-05-23T08:52:16.974Z,68.0
2023-05-23T08:53:16.526Z,68.8
2023-05-23T08:54:17.081Z,68.8
2023-05-23T08:55:16.666Z,67.9
2023-05-23T08:56:17.260Z,66.1
2023-05-23T08:57:16.828Z,66.1
2023-05-23T08:58:17.375Z,66.1
2023-05-23T08:59:17.011Z,66.4
2023-05-23T09:00:16.653Z,66.8
2023-05-23T09:01:17.411Z,65.4
2023-05-23T09:02:17.344Z,65.8
2023-05-23T09:03:16.966Z,65.2
2023-05-23T09:04:16.539Z,63.8
2023-05-23T09:05:17.280Z,64.9
2023-05-23T09:06:16.962Z,64.0
2023-05-23T09:07:17.601Z,64.1
2023-05-23T09:08:17.240Z,64.1
2023-05-23T09:09:16.807Z,64.9
2023-05-23T09:10:17.390Z,65.2
2023-05-23T09:11:16.983Z,66.6
2023-05-23T09:12:16.539Z,67.3
2023-05-23T09:13:17.106Z,68.4
2023-05-23T09:14:16.706Z,67.9
2023-05-23T09:15:17.666Z,68.0
2023-05-23T09:16:17.414Z,68.5
2023-05-23T09:17:17.059Z,67.4
2023-05-23T09:18:16.610Z,66.1
2023-05-23T09:19:17.245Z,65.9
2023-05-23T09:20:16.835Z,66.7
2023-05-23T09:21:17.455Z,67.1
2023-05-23T09:22:16.948Z,66.3
2023-05-23T09:23:17.498Z,65.4
2023-05-23T09:24:17.048Z,64.0
2023-05-23T09:25:16.641Z,62.7
2023-05-23T09:26:17.199Z,62.1
2023-05-23T09:27:16.764Z,62.2
2023-05-23T09:28:17.286Z,63.0
2023-05-23T09:29:16.836Z,62.6
2023-05-23T09:30:17.577Z,62.9
2023-05-23T09:31:17.297Z,64.0
2023-05-23T09:32:16.760Z,63.6
2023-05-23T09:33:17.442Z,63.3
2023-05-23T09:34:16.995Z,62.7
2023-05-23T09:35:16.567Z,62.4
2023-05-23T09:36:17.265Z,61.0
2023-05-23T09:37:16.855Z,59.4
2023-05-23T09:38:17.399Z,59.5
2023-05-23T09:39:16.972Z,60.7
2023-05-23T09:40:16.999Z,61.9
2023-05-23T09:41:16.693Z,62.2
2023-05-23T09:42:17.496Z,62.1
2023-05-23T09:43:17.085Z,61.0
2023-05-23T09:44:16.624Z,60.8
2023-05-23T09:45:17.513Z,60.1
2023-05-23T09:46:17.074Z,60.5
2023-05-23T09:47:16.767Z,60.8
2023-05-23T09:48:17.432Z,62.0
2023-05-23T09:49:17.000Z,61.2
2023-05-23T09:50:16.586Z,62.3
2023-05-23T09:51:17.153Z,63.8
2023-05-23T09:52:16.634Z,61.5
2023-05-23T09:53:17.245Z,59.6
2023-05-23T09:54:16.811Z,59.7
2023-05-23T09:55:17.385Z,60.1
2023-05-23T09:56:16.935Z,60.0
2023-05-23T09:57:17.502Z,60.0
2023-05-23T09:58:17.100Z,60.4
2023-05-23T09:59:16.663Z,59.5
2023-05-23T10:00:17.506Z,59.4
2023-05-23T10:01:17.158Z,59.2
2023-05-23T10:02:16.630Z,59.9
2023-05-23T10:03:17.256Z,61.5
2023-05-23T10:04:16.931Z,61.5
2023-05-23T10:05:17.541Z,61.2
2023-05-23T10:06:17.097Z,60.6
2023-05-23T10:07:16.647Z,60.9
2023-05-23T10:08:17.218Z,60.9
2023-05-23T10:09:16.791Z,61.6
2023-05-23T10:10:17.374Z,63.1
2023-05-23T10:11:16.986Z,62.8
2023-05-23T10:12:17.260Z,63.2
2023-05-23T10:13:16.876Z,63.0
2023-05-23T10:14:17.512Z,62.6
2023-05-23T10:15:17.226Z,63.1
2023-05-23T10:16:16.897Z,63.2
2023-05-23T10:17:17.575Z,62.0
2023-05-23T10:18:17.149Z,61.6
2023-05-23T10:19:16.815Z,62.0
2023-05-23T10:20:17.439Z,61.5
2023-05-23T10:21:17.014Z,61.6
2023-05-23T10:22:16.643Z,61.9
2023-05-23T10:23:17.196Z,61.9
2023-05-23T10:24:16.755Z,61.6
2023-05-23T10:25:17.324Z,61.9
2023-05-23T10:26:16.844Z,62.5
2023-05-23T10:27:17.408Z,62.7
2023-05-23T10:28:17.061Z,62.6
2023-05-23T10:29:16.619Z,61.8
2023-05-23T10:30:17.203Z,62.7
2023-05-23T10:31:16.832Z,62.9
2023-05-23T10:32:16.978Z,63.0
2023-05-23T10:33:16.550Z,63.4
2023-05-23T10:34:17.133Z,63.5
2023-05-23T10:35:16.738Z,64.8
2023-05-23T10:36:17.408Z,64.1
2023-05-23T10:37:16.948Z,63.9
2023-05-23T10:38:17.501Z,63.4
2023-05-23T10:39:17.087Z,62.9
2023-05-23T10:40:16.683Z,62.9
2023-05-23T10:41:17.364Z,62.9
2023-05-23T10:42:16.648Z,62.7
2023-05-23T10:43:17.176Z,61.3
2023-05-23T10:44:16.839Z,61.5
2023-05-23T10:45:17.433Z,61.2
2023-05-23T10:46:17.167Z,62.3
2023-05-23T10:47:16.847Z,62.3
2023-05-23T10:48:17.390Z,62.2
2023-05-23T10:49:16.945Z,62.2
2023-05-23T10:50:17.541Z,62.5
2023-05-23T10:51:17.114Z,63.4
2023-05-23T10:52:17.182Z,63.9
2023-05-23T10:53:16.741Z,64.3
2023-05-23T10:54:17.338Z,64.4
2023-05-23T10:55:16.867Z,64.3
2023-05-23T10:56:17.390Z,63.6
2023-05-23T10:57:16.985Z,64.4
2023-05-23T10:58:16.580Z,63.5
2023-05-23T10:59:17.158Z,63.8
2023-05-23T11:00:16.760Z,63.6
2023-05-23T11:01:17.318Z,64.4
2023-05-23T11:02:16.860Z,64.4
2023-05-23T11:03:17.743Z,65.8
2023-05-23T11:04:17.534Z,66.4
2023-05-23T11:05:17.160Z,65.9
2023-05-23T11:06:16.728Z,65.2
2023-05-23T11:07:17.311Z,64.9
2023-05-23T11:08:16.864Z,64.8
2023-05-23T11:09:17.409Z,64.7
2023-05-23T11:10:16.993Z,64.5
2023-05-23T11:11:16.572Z,65.1
2023-05-23T11:12:16.617Z,65.4
2023-05-23T11:13:17.152Z,65.4
2023-05-23T11:14:16.708Z,66.4
2023-05-23T11:15:17.268Z,65.6
2023-05-23T11:16:16.913Z,65.5
2023-05-23T11:17:17.524Z,65.0
2023-05-23T11:18:17.136Z,63.8
2023-05-23T11:19:16.752Z,63.4
2023-05-23T11:20:17.525Z,62.3
2023-05-23T11:21:17.107Z,64.2
2023-05-23T11:22:17.226Z,63.9
2023-05-23T11:23:16.799Z,64.3
2023-05-23T11:24:17.361Z,63.8
2023-05-23T11:25:17.076Z,64.3
2023-05-23T11:26:16.675Z,63.8
2023-05-23T11:27:17.460Z,64.3
2023-05-23T11:28:17.333Z,64.0
2023-05-23T11:29:17.010Z,62.4
2023-05-23T11:30:16.981Z,62.2
2023-05-23T11:31:16.634Z,62.1
2023-05-23T11:32:18.308Z,61.6
2023-05-23T11:33:17.341Z,61.4
2023-05-23T11:34:17.148Z,61.5
2023-05-23T11:35:17.059Z,62.3
2023-05-23T11:36:16.667Z,62.4
2023-05-23T11:37:17.471Z,62.5
2023-05-23T11:38:17.459Z,62.6
2023-05-23T11:39:17.107Z,64.5
2023-05-23T11:40:16.734Z,63.6
2023-05-23T11:41:17.483Z,63.1
2023-05-23T11:42:17.558Z,63.3
2023-05-23T11:43:17.229Z,62.9
2023-05-23T11:44:16.974Z,62.8
2023-05-23T11:45:16.789Z,62.8
2023-05-23T11:46:17.428Z,62.3
2023-05-23T11:47:17.153Z,62.3
2023-05-23T11:48:17.032Z,62.5
2023-05-23T11:49:16.626Z,62.7
2023-05-23T11:50:17.299Z,62.3
2023-05-23T11:51:17.022Z,63.1
2023-05-23T11:52:16.637Z,64.2
2023-05-23T11:53:17.208Z,64.4
2023-05-23T11:54:16.802Z,64.5
2023-05-23T11:55:17.464Z,65.0
2023-05-23T11:56:17.165Z,65.5
2023-05-23T11:57:16.737Z,64.8
2023-05-23T11:58:17.285Z,64.8
2023-05-23T11:59:16.852Z,64.6
2023-05-23T12:00:17.517Z,64.1
2023-05-23T12:01:17.235Z,64.5
2023-05-23T12:02:17.395Z,64.3
2023-05-23T12:03:17.517Z,63.9
2023-05-23T12:04:17.447Z,63.9
2023-05-23T12:05:17.065Z,64.5
2023-05-23T12:06:16.637Z,64.2
2023-05-23T12:07:17.292Z,64.0
2023-05-23T12:08:16.873Z,63.8
2023-05-23T12:09:17.475Z,64.0
2023-05-23T12:10:17.131Z,64.7
2023-05-23T12:11:16.700Z,64.8
2023-05-23T12:12:17.097Z,64.9
2023-05-23T12:13:16.773Z,64.7
2023-05-23T12:14:17.799Z,64.6
2023-05-23T12:15:17.498Z,65.0
2023-05-23T12:16:17.205Z,65.0
2023-05-23T12:17:17.138Z,64.7
2023-05-23T12:18:17.172Z,65.2
2023-05-23T12:19:16.773Z,65.2
2023-05-23T12:20:17.375Z,66.0
2023-05-23T12:21:16.990Z,66.7
2023-05-23T12:22:17.442Z,66.7
2023-05-23T12:23:17.016Z,66.2
2023-05-23T12:24:16.556Z,65.9
2023-05-23T12:25:17.138Z,66.2
2023-05-23T12:26:16.691Z,66.7
2023-05-23T12:27:17.253Z,66.9
2023-05-23T12:28:16.832Z,66.5
2023-05-23T12:29:17.378Z,66.7
2023-05-23T12:30:17.052Z,66.9
2023-05-23T12:31:16.931Z,66.7
2023-05-23T12:32:16.950Z,66.4
2023-05-23T12:33:17.535Z,66.4
2023-05-23T12:34:17.092Z,66.3
2023-05-23T12:35:16.686Z,66.1
2023-05-23T12:36:17.264Z,66.4
2023-05-23T12:37:20.794Z,66.6
2023-05-23T12:38:17.460Z,66.2
2023-05-23T12:39:17.061Z,66.2
2023-05-23T12:40:16.649Z,66.4
2023-05-23T12:41:17.218Z,66.6
2023-05-23T12:42:17.472Z,66.9
2023-05-23T12:43:17.014Z,67.2
2023-05-23T12:44:16.590Z,67.3
2023-05-23T12:45:17.170Z,67.5
2023-05-23T12:46:16.719Z,68.1
2023-05-23T12:47:17.499Z,68.1
2023-05-23T12:48:17.264Z,68.4
2023-05-23T12:49:16.866Z,68.2
2023-05-23T12:50:17.452Z,68.0
2023-05-23T12:51:17.030Z,68.0
2023-05-23T12:52:16.825Z,67.9
2023-05-23T12:53:17.479Z,67.3
2023-05-23T12:54:17.108Z,67.2
2023-05-23T12:55:16.745Z,67.6
2023-05-23T12:56:18.317Z,67.6
2023-05-23T12:57:16.833Z,67.8
2023-05-23T12:58:17.380Z,67.3
2023-05-23T12:59:16.936Z,67.1
2023-05-23T13:00:17.563Z,67.1
2023-05-23T13:01:17.298Z,67.2
2023-05-23T13:02:17.505Z,67.2
2023-05-23T13:03:17.073Z,67.0
2023-05-23T13:04:16.796Z,66.9
2023-05-23T13:05:17.431Z,66.9
2023-05-23T13:06:17.013Z,66.4
2023-05-23T13:07:16.582Z,66.3
2023-05-23T13:08:17.125Z,66.2
2023-05-23T13:09:16.723Z,66.6
2023-05-23T13:10:17.283Z,66.9
2023-05-23T13:11:16.881Z,66.9
2023-05-23T13:12:17.471Z,66.3
2023-05-23T13:13:17.055Z,66.3
2023-05-23T13:14:16.646Z,65.8
2023-05-23T13:15:17.246Z,66.0
2023-05-23T13:16:16.883Z,66.9
2023-05-23T13:17:17.483Z,67.2
2023-05-23T13:18:17.269Z,67.3